KCMY/CMY METAR and TAF weather

Enter ICAO airport designator
Station Type Date Time Source
KCMY METAR 2021/01/17 19:55 UTC NOAA

KCMY 171955Z AUTO 29006KT 10SM M02/M04 A2973 RMK AO2 T10171040


Station Type Date Time Source
KCMY Decoded METAR 2021/01/17 19:55 UTC NOAA

Sparta, Sparta / Fort McCoy Airport, WI, United States (KCMY) 43-57-30N 090-44-16W
Jan 17, 2021 - 02:55 PM EST / 2021.01.17 1955 UTC
Wind: from the WNW (290 degrees) at 7 MPH (6 KT):0
Visibility: 10 mile(s):0
Temperature: 28.9 F (-1.7 C)
Windchill: 21 F (-6 C):1
Dew Point: 24.8 F (-4.0 C)
Relative Humidity: 84%
Pressure (altimeter): 29.73 in. Hg (1006 hPa)
ob: KCMY 171955Z AUTO 29006KT 10SM M02/M04 A2973 RMK AO2 T10171040
cycle: 20

Station Type Date Time Source
KCMY TAF UTC NOAA

Error!

Example: see airport list